DW9989 Riverview FL US current weather conditions

sailwx.info

Air temperature 25.0° C
Dewpoint 23.2° C

Last reported at 2020-Sep-26 06:09 UTC.
Time now 2020-Sep-26 06:35 UTC

Location: N 27°52' W 082°21'.
View on Google Maps.

See reports from other nearby stations

  
Tides and Currents Weather Stations Pressure Air Temp Water Temp Dewpoint Dewpoint Depression Visibility Wind Speed Wind Dir Waves Ship Positions
date/time (UTC)wind fromknots sea level pressurealtimeterstation pressurevisibilityair tempwater tempwave heightnotes
2020-Sep-26 06:09 25.0
2020-Sep-26 06:04 25.0
2020-Sep-26 05:54 175 1 gusting 2 25.0
2020-Sep-26 05:49 149 0 gusting 3 25.0
2020-Sep-26 05:44 142 1 gusting 2 25.0
2020-Sep-26 05:39 25.6
2020-Sep-26 05:34 231 1 gusting 2 25.6
2020-Sep-26 05:29 240 1 gusting 2 25.6
2020-Sep-26 05:24 228 1 gusting 2 25.6
2020-Sep-26 05:19 172 1 gusting 2 25.6
2020-Sep-26 05:14 170 0 gusting 1 25.6
2020-Sep-26 05:09 180 1 gusting 2 25.6
2020-Sep-26 05:04 199 1 gusting 2 25.6
2020-Sep-26 04:59 212 1 gusting 2 25.6
2020-Sep-26 04:54 180 1 gusting 2 25.6
2020-Sep-26 04:49 173 1 gusting 2 25.6
2020-Sep-26 04:44 150 1 gusting 2 25.6
2020-Sep-26 04:39 160 0 gusting 2 25.6
2020-Sep-26 04:34 25.6
2020-Sep-26 04:29 222 0 gusting 1 25.6
2020-Sep-26 04:24 140 0 gusting 2 26.1
2020-Sep-26 04:19 189 0 gusting 2 26.1
2020-Sep-26 04:14 230 1 gusting 3 26.1
2020-Sep-26 04:09 268 0 gusting 2 26.1
2020-Sep-26 04:04 26.1
2020-Sep-26 03:59 274 0 gusting 1 26.1
2020-Sep-26 03:54 165 0 gusting 2 26.1
2020-Sep-26 03:49 194 1 gusting 2 26.1
2020-Sep-26 03:44 224 2 gusting 3 26.1
2020-Sep-26 03:39 240 0 gusting 1 26.1
2020-Sep-26 03:34 240 0 gusting 2 26.1
2020-Sep-26 03:29 181 1 gusting 2 26.1
2020-Sep-26 03:24 207 0 gusting 2 26.1
2020-Sep-26 03:19 225 3 gusting 4 26.1
2020-Sep-26 03:14 210 2 gusting 4 26.1
2020-Sep-26 03:09 145 2 gusting 4 26.7
2020-Sep-26 03:04 147 2 gusting 3 26.7
2020-Sep-26 02:59 187 2 gusting 4 26.7
2020-Sep-26 02:54 195 3 gusting 5 26.7
2020-Sep-26 02:49 209 1 gusting 2 26.7
2020-Sep-26 02:44 211 2 gusting 4 26.7
2020-Sep-26 02:39 157 2 gusting 3 26.7
2020-Sep-26 02:34 180 2 gusting 3 26.7
2020-Sep-26 02:29 200 2 gusting 4 27.2
2020-Sep-26 02:24 180 2 gusting 5 27.2
2020-Sep-26 02:19 176 2 gusting 4 27.2
2020-Sep-26 02:14 154 2 gusting 3 27.2
2020-Sep-26 02:09 177 2 gusting 4 27.2
2020-Sep-26 02:04 210 4 gusting 6 27.2
2020-Sep-26 01:59 197 3 gusting 5 27.8
2020-Sep-26 01:54 173 3 gusting 6 27.8
2020-Sep-26 01:49 150 6 gusting 9 27.8
2020-Sep-26 01:44 159 3 gusting 5 28.3
2020-Sep-26 01:39 189 4 gusting 6 28.3
2020-Sep-26 01:34 180 4 gusting 6 28.3
2020-Sep-26 01:29 154 4 gusting 5 28.9
2020-Sep-26 01:24 153 5 gusting 7 28.9
2020-Sep-26 01:19 146 3 gusting 5 28.9
2020-Sep-26 01:14 146 1 gusting 3 28.9
2020-Sep-26 01:09 223 0 gusting 2 28.9
2020-Sep-26 01:04 241 2 gusting 4 28.9
2020-Sep-26 00:59 251 2 gusting 3 28.9
2020-Sep-26 00:54 239 3 gusting 5 28.9
2020-Sep-26 00:49 243 2 gusting 4 28.9
2020-Sep-26 00:44 234 1 gusting 2 28.9
2020-Sep-26 00:39 204 1 gusting 3 28.9
2020-Sep-26 00:34 226 4 gusting 6 28.9
2020-Sep-26 00:29 236 2 gusting 3 28.9
2020-Sep-26 00:24 241 2 gusting 4 28.9
2020-Sep-26 00:19 234 2 gusting 5 29.4
2020-Sep-26 00:14 251 3 gusting 5 29.4
2020-Sep-26 00:09 258 2 gusting 4 29.4
2020-Sep-26 00:04 254 0 gusting 2 29.4
2020-Sep-25 23:59 247 3 gusting 6 29.4
2020-Sep-25 23:54 246 3 gusting 6 29.4
2020-Sep-25 23:49 238 3 gusting 5 29.4
2020-Sep-25 23:44 248 3 gusting 5 29.4
2020-Sep-25 23:39 257 3 gusting 5 30.0
2020-Sep-25 23:34 268 3 gusting 5 30.0
2020-Sep-25 23:29 269 2 gusting 4 30.0
2020-Sep-25 23:24 259 4 gusting 6 30.0
2020-Sep-25 23:19 240 5 gusting 6 30.0
2020-Sep-25 23:14 266 2 gusting 4 30.6
2020-Sep-25 23:09 240 3 gusting 5 30.6
2020-Sep-25 23:04 250 2 gusting 4 30.6
2020-Sep-25 22:59 268 2 gusting 3 30.6
2020-Sep-25 22:54 240 4 gusting 5 30.6
2020-Sep-25 22:49 243 3 gusting 6 30.6
2020-Sep-25 22:44 242 4 gusting 6 30.6
2020-Sep-25 22:39 263 2 gusting 4 31.1
2020-Sep-25 22:34 282 1 gusting 3 31.1
2020-Sep-25 22:29 249 5 gusting 7 31.1
2020-Sep-25 22:24 290 6 gusting 8 31.1
2020-Sep-25 22:19 305 4 gusting 6 31.1
2020-Sep-25 22:14 311 6 gusting 8 31.7
2020-Sep-25 22:09 299 6 gusting 7 31.7
2020-Sep-25 22:04 282 3 gusting 5 31.7
2020-Sep-25 21:54 274 4 gusting 6 31.7
2020-Sep-25 21:49 265 2 gusting 6 31.7
2020-Sep-25 21:44 285 5 gusting 6 31.7
2020-Sep-25 21:39 273 4 gusting 5 31.7
2020-Sep-25 21:34 289 5 gusting 7 32.2
2020-Sep-25 21:29 281 5 gusting 8 32.2
2020-Sep-25 21:24 279 3 gusting 5 32.8
2020-Sep-25 21:19 235 4 gusting 6 32.2
2020-Sep-25 21:15 32.2
2020-Sep-25 21:06 240 4 gusting 6 32.2
2020-Sep-25 21:01 287 6 gusting 8 32.8
2020-Sep-25 20:56 228 4 gusting 6 32.8
2020-Sep-25 20:51 256 6 gusting 9 32.2
2020-Sep-25 20:46 270 3 gusting 6 32.8
2020-Sep-25 20:41 236 4 gusting 6 32.8
2020-Sep-25 20:36 245 5 gusting 7 32.8
2020-Sep-25 20:31 233 6 gusting 9 32.8
2020-Sep-25 20:26 226 6 gusting 10 32.2
2020-Sep-25 20:21 227 5 gusting 10 32.2
2020-Sep-25 20:16 252 7 gusting 10 32.8
2020-Sep-25 20:11 234 7 gusting 11 32.8
2020-Sep-25 20:06 226 3 gusting 6 32.8
2020-Sep-25 20:01 235 8 gusting 11 33.3
2020-Sep-25 19:56 223 4 gusting 7 32.8
2020-Sep-25 19:51 243 6 gusting 9 32.8
2020-Sep-25 19:46 269 2 gusting 6 33.3
2020-Sep-25 19:41 235 6 gusting 8 33.3
2020-Sep-25 19:36 225 4 gusting 12 32.8
2020-Sep-25 19:31 230 4 gusting 6 32.8
2020-Sep-25 19:26 246 6 gusting 8 32.8
2020-Sep-25 19:21 294 4 gusting 6 32.8
2020-Sep-25 19:16 255 5 gusting 7 32.2
2020-Sep-25 19:11 291 6 gusting 8 32.2
2020-Sep-25 19:06 306 4 gusting 6 32.2
2020-Sep-25 19:01 289 5 gusting 6 32.2
2020-Sep-25 18:56 320 8 gusting 11 32.2
2020-Sep-25 18:51 337 3 gusting 6 32.2
2020-Sep-25 18:46 283 4 gusting 6 31.7
2020-Sep-25 18:41 283 6 gusting 7 32.2
2020-Sep-25 18:36 250 4 gusting 6 32.8
2020-Sep-25 18:31 243 6 gusting 8 32.2
2020-Sep-25 18:26 316 4 gusting 7 32.2
2020-Sep-25 18:21 259 3 gusting 6 32.8
2020-Sep-25 18:16 257 4 gusting 6 32.8
2020-Sep-25 18:11 264 3 gusting 6 32.2
2020-Sep-25 18:06 301 2 gusting 3 31.7
2020-Sep-25 18:01 250 1 gusting 3 32.2
2020-Sep-25 17:56 275 3 gusting 5 32.2
2020-Sep-25 17:51 225 6 gusting 6 32.2
2020-Sep-25 17:50 32.2
2020-Sep-25 17:42 249 4 gusting 6 31.7
2020-Sep-25 17:37 222 3 gusting 6 31.7
2020-Sep-25 17:32 341 4 gusting 6 31.7
2020-Sep-25 17:27 282 3 gusting 6 31.1
2020-Sep-25 17:22 273 1 gusting 3 30.6
2020-Sep-25 17:17 337 5 gusting 7 30.6
2020-Sep-25 17:12 264 5 gusting 6 30.6
2020-Sep-25 17:07 312 3 gusting 5 30.6
2020-Sep-25 17:02 283 3 gusting 5 30.6
2020-Sep-25 16:57 348 6 gusting 6 30.6
2020-Sep-25 16:52 242 4 gusting 6 30.6
2020-Sep-25 16:47 343 2 gusting 4 30.0
2020-Sep-25 16:42 348 4 gusting 6 30.0
2020-Sep-25 16:37 319 2 gusting 5 30.0
2020-Sep-25 16:32 290 5 gusting 6 30.6
2020-Sep-25 16:27 338 6 gusting 8 30.6
2020-Sep-25 16:22 358 3 gusting 5 30.0
2020-Sep-25 16:17 350 0 gusting 2 30.0
2020-Sep-25 16:12 239 3 gusting 4 30.6
2020-Sep-25 16:07 233 2 gusting 4 30.6
2020-Sep-25 16:02 223 5 gusting 6 30.6
2020-Sep-25 15:57 293 2 gusting 4 30.6
2020-Sep-25 15:52 223 3 gusting 4 30.0
2020-Sep-25 15:47 096 1 gusting 2 30.0
2020-Sep-25 15:42 164 1 gusting 3 30.0
2020-Sep-25 15:37 006 1 gusting 2 29.4
2020-Sep-25 15:32 360 1 gusting 2 29.4
2020-Sep-25 15:27 056 0 gusting 2 29.4
2020-Sep-25 15:22 033 0 gusting 1 30.0
2020-Sep-25 15:17 150 1 gusting 2 30.0
2020-Sep-25 15:12 155 2 gusting 4 30.0
2020-Sep-25 15:07 155 1 gusting 2 30.0
2020-Sep-25 15:02 228 4 gusting 5 29.4
2020-Sep-25 14:57 242 1 gusting 2 29.4
2020-Sep-25 14:52 212 1 gusting 3 28.9
2020-Sep-25 14:47 204 3 gusting 5 28.9
2020-Sep-25 14:42 167 3 gusting 5 28.9
2020-Sep-25 14:37 153 3 gusting 5 28.9
2020-Sep-25 14:32 112 2 gusting 4 28.9
2020-Sep-25 14:27 165 0 gusting 2 28.9
2020-Sep-25 14:22 211 2 gusting 6 28.3
2020-Sep-25 14:17 206 3 gusting 4 28.3
2020-Sep-25 14:12 253 1 gusting 2 27.8
2020-Sep-25 14:07 27.8
2020-Sep-25 14:02 27.2
2020-Sep-25 13:57 007 0 gusting 1 27.2
2020-Sep-25 13:52 073 0 gusting 2 27.2
2020-Sep-25 13:47 100 1 gusting 3 26.7
2020-Sep-25 13:42 053 2 gusting 4 26.7
2020-Sep-25 13:37 107 2 gusting 6 26.7
2020-Sep-25 13:32 122 3 gusting 6 26.7
2020-Sep-25 13:27 040 2 gusting 4 26.1
2020-Sep-25 13:22 061 1 gusting 2 26.1
2020-Sep-25 13:17 022 1 gusting 3 25.6
2020-Sep-25 13:12 026 4 gusting 5 25.6
2020-Sep-25 13:07 053 2 gusting 3 25.6
2020-Sep-25 13:02 036 1 gusting 2 25.6
2020-Sep-25 12:57 047 2 gusting 3 25.0
2020-Sep-25 12:52 006 1 gusting 5 25.0
2020-Sep-25 12:47 031 2 gusting 4 25.0
2020-Sep-25 12:42 057 1 gusting 3 25.0
2020-Sep-25 12:37 050 1 gusting 2 24.4
2020-Sep-25 12:32 045 0 gusting 2 24.4
2020-Sep-25 12:27 025 1 gusting 2 24.4
2020-Sep-25 12:22 039 2 gusting 3 24.4
2020-Sep-25 12:17 030 2 gusting 3 23.9
2020-Sep-25 12:12 047 1 gusting 2 23.9
2020-Sep-25 12:07 043 1 gusting 2 23.9
2020-Sep-25 12:02 043 0 gusting 2 23.9
2020-Sep-25 11:57 028 0 gusting 2 23.9
2020-Sep-25 11:52 057 2 gusting 3 23.9
2020-Sep-25 11:47 039 2 gusting 3 23.9
2020-Sep-25 11:42 044 0 gusting 2 23.9
2020-Sep-25 11:37 047 2 gusting 3 23.9
2020-Sep-25 11:32 075 1 gusting 2 23.9
2020-Sep-25 11:27 023 1 gusting 2 23.9
2020-Sep-25 11:22 009 2 gusting 3 23.9
2020-Sep-25 11:17 034 2 gusting 3 23.9
2020-Sep-25 11:12 056 1 gusting 2 23.9
2020-Sep-25 11:07 066 0 gusting 1 23.9
2020-Sep-25 11:02 065 1 gusting 2 23.9
2020-Sep-25 10:57 065 0 gusting 2 23.9
2020-Sep-25 10:52 23.9
2020-Sep-25 10:47 091 1 gusting 2 23.9
2020-Sep-25 10:42 095 0 gusting 2 23.9
2020-Sep-25 10:37 097 1 gusting 2 23.9
2020-Sep-25 10:32 101 0 gusting 2 23.9
2020-Sep-25 10:27 088 0 gusting 2 23.9
2020-Sep-25 10:22 096 1 gusting 3 23.9
2020-Sep-25 10:17 075 0 gusting 2 23.9
2020-Sep-25 10:12 036 1 gusting 3 23.9
2020-Sep-25 10:07 062 1 gusting 2 23.9
2020-Sep-25 10:02 064 1 gusting 2 23.9
2020-Sep-25 09:57 078 0 gusting 1 23.9
2020-Sep-25 09:52 060 0 gusting 1 23.9
2020-Sep-25 09:47 089 0 gusting 2 23.9
2020-Sep-25 09:42 086 0 gusting 1 23.9
2020-Sep-25 09:37 100 1 gusting 2 23.9
2020-Sep-25 09:32 23.9
2020-Sep-25 09:27 074 1 gusting 2 23.9
2020-Sep-25 09:22 067 0 gusting 2 23.9
2020-Sep-25 09:17 040 0 gusting 2 23.9
2020-Sep-25 09:12 063 2 gusting 3 24.4
2020-Sep-25 09:07 034 1 gusting 2 24.4
2020-Sep-25 09:02 020 1 gusting 2 24.4
2020-Sep-25 08:57 015 2 gusting 4 23.9
2020-Sep-25 08:52 050 2 gusting 3 23.9
2020-Sep-25 08:47 23.9
2020-Sep-25 08:42 073 0 gusting 2 23.9
2020-Sep-25 08:37 23.9
2020-Sep-25 08:32 069 0 gusting 1 23.9
2020-Sep-25 08:27 23.9
2020-Sep-25 08:22 057 0 gusting 2 23.9
2020-Sep-25 08:17 090 1 gusting 2 23.9
2020-Sep-25 08:12 049 0 gusting 1 23.9
2020-Sep-25 08:07 061 1 gusting 2 23.9
2020-Sep-25 08:02 056 2 gusting 3 23.9
2020-Sep-25 07:57 061 0 gusting 2 23.9
2020-Sep-25 07:52 23.9
2020-Sep-25 07:47 23.9
2020-Sep-25 07:42 23.9
2020-Sep-25 07:37 090 1 gusting 2 24.4
2020-Sep-25 07:32 064 0 gusting 2 24.4
2020-Sep-25 07:27 071 0 gusting 1 24.4
2020-Sep-25 07:22 095 0 gusting 1 24.4
2020-Sep-25 07:17 089 0 gusting 2 24.4
2020-Sep-25 07:12 075 1 gusting 2 24.4
2020-Sep-25 07:07 057 0 gusting 1 24.4
2020-Sep-25 07:02 068 1 gusting 2 24.4
2020-Sep-25 06:57 101 0 gusting 2 24.4
2020-Sep-25 06:52 072 0 gusting 2 24.4
2020-Sep-25 06:47 24.4
2020-Sep-25 06:42 048 1 gusting 2 24.4
2020-Sep-25 06:37 044 2 gusting 3 24.4
2020-Sep-25 06:32 072 0 gusting 2 24.4
2020-Sep-25 06:27 114 0 gusting 1 24.4
2020-Sep-25 06:22 107 1 gusting 2 24.4
2020-Sep-25 06:17 24.4
2020-Sep-25 06:12 122 0 gusting 2 25.0
2020-Sep-25 06:07 090 0 gusting 2 25.0
2020-Sep-25 06:02 098 2 gusting 3 25.0
2020-Sep-25 05:57 104 2 gusting 3 25.0
2020-Sep-25 05:52 082 1 gusting 2 25.0
2020-Sep-25 05:47 25.0
2020-Sep-25 05:42 083 0 gusting 2 25.0
2020-Sep-25 05:37 25.0
2020-Sep-25 05:32 25.6
2020-Sep-25 05:27 25.6
2020-Sep-25 05:22 25.6
2020-Sep-25 05:17 25.6
2020-Sep-25 05:12 359 2 gusting 3 25.6
2020-Sep-25 05:07 002 3 gusting 4 25.6
2020-Sep-25 05:02 018 3 gusting 4 25.6
2020-Sep-25 04:57 010 2 gusting 3 25.6
2020-Sep-25 04:52 001 1 gusting 2 25.6
2020-Sep-25 04:47 035 0 gusting 1 25.6
2020-Sep-25 04:42 25.6
2020-Sep-25 04:37 25.6
2020-Sep-25 04:32 039 0 gusting 1 25.6
2020-Sep-25 04:27 057 0 gusting 2 26.1
2020-Sep-25 04:22 054 1 gusting 2 26.1
2020-Sep-25 04:17 034 2 gusting 3 26.1
2020-Sep-25 04:12 028 1 gusting 2 25.6
2020-Sep-25 04:07 25.6
2020-Sep-25 04:02 25.6
2020-Sep-25 03:57 25.6
2020-Sep-25 03:52 25.6
2020-Sep-25 03:47 040 0 gusting 2 25.6
2020-Sep-25 03:42 073 1 gusting 2 25.6
2020-Sep-25 03:37 128 0 gusting 2 26.1
2020-Sep-25 03:32 102 1 gusting 2 26.1
2020-Sep-25 03:27 093 0 gusting 2 26.1
2020-Sep-25 03:22 148 0 gusting 2 26.1
2020-Sep-25 03:17 169 2 gusting 3 26.1
2020-Sep-25 03:12 158 4 gusting 6 26.7
2020-Sep-25 03:07 181 6 gusting 9 26.7
2020-Sep-25 03:02 190 6 gusting 10 27.2
2020-Sep-25 02:57 143 4 gusting 5 27.2
2020-Sep-25 02:52 127 3 gusting 5 27.2
2020-Sep-25 02:47 134 4 gusting 6 27.2
2020-Sep-25 02:42 115 2 gusting 3 27.2
2020-Sep-25 02:37 095 3 gusting 6 27.2
2020-Sep-25 02:32 104 3 gusting 5 27.2
2020-Sep-25 02:27 133 3 gusting 4 27.2
2020-Sep-25 02:22 129 3 gusting 5 27.2
2020-Sep-25 02:17 119 4 gusting 6 27.2
2020-Sep-25 02:12 130 4 gusting 7 27.2
2020-Sep-25 02:07 126 3 gusting 5 27.2
2020-Sep-25 02:02 121 4 gusting 6 27.2
2020-Sep-25 01:57 113 4 gusting 6 27.2
2020-Sep-25 01:52 112 2 gusting 3 27.2
2020-Sep-25 01:47 104 1 gusting 4 27.2
2020-Sep-25 01:42 104 2 gusting 3 27.2
2020-Sep-25 01:37 095 1 gusting 2 27.2
2020-Sep-25 01:32 083 2 gusting 4 27.2
2020-Sep-25 01:27 110 2 gusting 3 27.2
2020-Sep-25 01:22 111 1 gusting 2 27.2
2020-Sep-25 01:17 115 0 gusting 2 27.2
2020-Sep-25 01:12 27.2
2020-Sep-25 01:07 27.2
2020-Sep-25 01:02 27.2
2020-Sep-25 00:57 094 2 gusting 4 27.2
2020-Sep-25 00:52 27.2
2020-Sep-25 00:47 27.2
2020-Sep-25 00:42 115 2 gusting 4 27.2
2020-Sep-25 00:37 143 0 gusting 1 27.2
2020-Sep-25 00:32 27.2
2020-Sep-25 00:27 27.2
2020-Sep-25 00:22 27.8
2020-Sep-25 00:17 27.8
2020-Sep-25 00:12 27.8
2020-Sep-25 00:07 27.8
2020-Sep-25 00:02 27.8
2020-Sep-24 23:57 28.3
2020-Sep-24 23:52 203 0 gusting 1 28.3
2020-Sep-24 23:47 28.3
2020-Sep-24 23:42 28.3
2020-Sep-24 23:37 28.3
2020-Sep-24 23:32 28.9
2020-Sep-24 23:27 274 0 gusting 2 28.9
2020-Sep-24 23:22 254 0 gusting 2 28.9
2020-Sep-24 23:17 249 0 gusting 2 28.9
2020-Sep-24 23:12 254 0 gusting 2 29.4
2020-Sep-24 23:07 279 2 gusting 3 29.4
2020-Sep-24 23:02 248 1 gusting 3 29.4
2020-Sep-24 22:57 266 0 gusting 2 29.4
2020-Sep-24 22:52 252 4 gusting 6 29.4
2020-Sep-24 22:47 270 3 gusting 5 30.0
2020-Sep-24 22:42 232 1 gusting 3 30.0
2020-Sep-24 22:37 221 3 gusting 4 30.0
2020-Sep-24 22:32 247 3 gusting 5 30.0
2020-Sep-24 22:27 254 2 gusting 4 30.0
2020-Sep-24 22:22 253 3 gusting 5 30.0
2020-Sep-24 22:17 252 4 gusting 6 30.0
2020-Sep-24 22:12 234 5 gusting 6 29.4
2020-Sep-24 22:07 250 4 gusting 7 29.4
2020-Sep-24 22:02 245 5 gusting 6 29.4
2020-Sep-24 21:57 243 5 gusting 7 30.0
2020-Sep-24 21:52 250 5 gusting 7 30.0
2020-Sep-24 21:47 224 4 gusting 5 30.0
2020-Sep-24 21:42 249 2 gusting 4 30.0
2020-Sep-24 21:37 254 3 gusting 5 30.0
2020-Sep-24 21:32 246 3 gusting 4 30.0
2020-Sep-24 21:27 240 6 gusting 8 30.0
2020-Sep-24 21:22 240 4 gusting 6 30.0
2020-Sep-24 21:17 234 6 gusting 8 30.6
2020-Sep-24 21:12 231 6 gusting 7 30.6
2020-Sep-24 21:07 224 5 gusting 6 30.6
2020-Sep-24 21:02 228 5 gusting 8 30.6
2020-Sep-24 20:57 222 5 gusting 6 31.1
2020-Sep-24 20:52 241 4 gusting 6 31.1
2020-Sep-24 20:47 234 5 gusting 6 31.1
2020-Sep-24 20:42 232 6 gusting 9 31.1
2020-Sep-24 20:37 231 5 gusting 7 31.7
2020-Sep-24 20:32 220 6 gusting 8 31.7
2020-Sep-24 20:27 217 4 gusting 6 32.2
2020-Sep-24 20:22 200 4 gusting 7 32.2
2020-Sep-24 20:17 168 5 gusting 6 32.8
2020-Sep-24 20:12 139 4 gusting 6 32.8
2020-Sep-24 20:07 129 4 gusting 7 32.8
2020-Sep-24 20:02 145 6 gusting 8 32.8
2020-Sep-24 19:57 160 6 gusting 9 33.3
2020-Sep-24 19:52 133 5 gusting 8 33.3
2020-Sep-24 19:47 184 5 gusting 8 33.3
2020-Sep-24 19:42 126 4 gusting 9 33.3
2020-Sep-24 19:37 184 4 gusting 6 33.3
2020-Sep-24 19:32 143 6 gusting 9 33.3
2020-Sep-24 19:27 152 6 gusting 9 33.3
2020-Sep-24 19:22 195 2 gusting 5 33.3
2020-Sep-24 19:17 184 5 gusting 10 33.3
2020-Sep-24 19:12 125 3 gusting 4 33.3
2020-Sep-24 19:07 135 6 gusting 8 32.8
2020-Sep-24 19:02 185 6 gusting 8 32.2
2020-Sep-24 18:57 171 5 gusting 6 32.2
2020-Sep-24 18:52 197 6 gusting 7 32.8
2020-Sep-24 18:47 194 5 gusting 8 33.3
2020-Sep-24 18:42 180 3 gusting 5 32.8
2020-Sep-24 18:37 144 5 gusting 6 33.3
2020-Sep-24 18:32 185 4 gusting 6 32.8
2020-Sep-24 18:27 186 3 gusting 5 32.8
2020-Sep-24 18:22 149 6 gusting 7 32.8
2020-Sep-24 18:17 123 4 gusting 6 32.8
2020-Sep-24 18:12 143 6 gusting 9 32.8
2020-Sep-24 18:07 142 3 gusting 5 32.8
2020-Sep-24 18:02 144 4 gusting 6 32.2
2020-Sep-24 17:57 155 6 gusting 8 32.2
2020-Sep-24 17:52 143 3 gusting 4 32.2
2020-Sep-24 17:47 145 4 gusting 6 32.2
2020-Sep-24 17:42 084 2 gusting 5 32.2
2020-Sep-24 17:37 114 4 gusting 6 31.7
2020-Sep-24 17:32 137 3 gusting 6 31.7
2020-Sep-24 17:27 205 3 gusting 6 31.7
2020-Sep-24 17:22 220 4 gusting 5 31.1
2020-Sep-24 17:17 194 1 gusting 3 30.6
2020-Sep-24 17:12 191 3 gusting 4 30.6
2020-Sep-24 17:07 199 4 gusting 6 31.1
2020-Sep-24 17:02 134 4 gusting 6 31.7
2020-Sep-24 16:57 129 5 gusting 7 31.7
2020-Sep-24 16:52 121 5 gusting 10 31.7
2020-Sep-24 16:47 125 5 gusting 6 31.7
2020-Sep-24 16:42 180 7 gusting 11 31.7
2020-Sep-24 16:37 150 4 gusting 7 31.7
2020-Sep-24 16:32 115 5 gusting 8 31.1
2020-Sep-24 16:27 147 7 gusting 10 31.1
2020-Sep-24 16:22 167 6 gusting 10 31.1
2020-Sep-24 16:17 167 4 gusting 7 31.1
2020-Sep-24 16:12 106 9 gusting 13 31.1
2020-Sep-24 16:07 110 2 gusting 5 31.1
2020-Sep-24 16:02 128 6 gusting 9 31.1
2020-Sep-24 15:57 143 6 gusting 11 30.6
2020-Sep-24 15:52 150 6 gusting 9 30.6
2020-Sep-24 15:47 110 5 gusting 6 30.0
2020-Sep-24 15:42 171 5 gusting 8 30.0
2020-Sep-24 15:37 142 4 gusting 6 30.0
2020-Sep-24 15:32 192 6 gusting 12 30.0
2020-Sep-24 15:27 123 6 gusting 7 30.0
2020-Sep-24 15:22 126 6 gusting 10 30.0
2020-Sep-24 15:17 145 4 gusting 6 29.4
2020-Sep-24 15:12 133 5 gusting 9 29.4
2020-Sep-24 15:07 133 6 gusting 12 29.4
2020-Sep-24 15:02 158 4 gusting 8 29.4
2020-Sep-24 14:57 132 6 gusting 8 29.4
2020-Sep-24 14:52 172 3 gusting 7 28.9
2020-Sep-24 14:47 145 6 gusting 9 28.9
2020-Sep-24 14:42 156 8 gusting 14 28.9
2020-Sep-24 14:37 126 8 gusting 14 28.9
2020-Sep-24 14:32 123 4 gusting 7 28.3
2020-Sep-24 14:27 164 6 gusting 8 28.3
2020-Sep-24 14:22 148 9 gusting 15 28.3
2020-Sep-24 14:17 124 6 gusting 9 27.8
2020-Sep-24 14:12 120 6 gusting 11 27.8
2020-Sep-24 14:07 124 6 gusting 10 27.8
2020-Sep-24 14:02 176 6 gusting 10 27.2
2020-Sep-24 13:57 134 6 gusting 8 27.2
2020-Sep-24 13:52 139 6 gusting 9 27.2
2020-Sep-24 13:47 120 3 gusting 5 26.7
2020-Sep-24 13:42 142 3 gusting 7 26.1
2020-Sep-24 13:37 152 5 gusting 7 26.1
2020-Sep-24 13:32 133 6 gusting 10 26.1
2020-Sep-24 13:27 138 5 gusting 7 26.1
2020-Sep-24 13:07 137 3 gusting 5 25.6
2020-Sep-24 13:02 154 6 gusting 7 25.0
2020-Sep-24 12:57 136 3 gusting 6 25.0
2020-Sep-24 12:52 141 3 gusting 5 24.4
2020-Sep-24 12:47 107 3 gusting 5 24.4
2020-Sep-24 12:42 085 2 gusting 4 23.9
2020-Sep-24 12:37 098 1 gusting 3 23.9
2020-Sep-24 12:32 107 2 gusting 4 23.3
2020-Sep-24 12:27 085 1 gusting 2 23.3
2020-Sep-24 12:22 084 3 gusting 5 22.8
2020-Sep-24 12:17 072 0 gusting 3 22.8
2020-Sep-24 12:12 083 1 gusting 3 22.8
2020-Sep-24 12:07 075 1 gusting 3 22.8
2020-Sep-24 12:02 083 1 gusting 2 22.8
2020-Sep-24 11:57 093 1 gusting 3 22.8
2020-Sep-24 11:52 102 0 gusting 2 22.2
2020-Sep-24 11:47 117 0 gusting 4 22.2
2020-Sep-24 11:42 081 1 gusting 2 22.2
2020-Sep-24 11:37 088 1 gusting 2 22.2
2020-Sep-24 11:32 104 1 gusting 3 22.2
2020-Sep-24 11:27 095 1 gusting 3 22.2
2020-Sep-24 11:22 101 0 gusting 2 22.8
2020-Sep-24 11:17 077 2 gusting 3 22.8
2020-Sep-24 11:12 077 2 gusting 3 22.8
2020-Sep-24 11:07 097 1 gusting 3 22.2
2020-Sep-24 11:02 086 2 gusting 3 22.2
2020-Sep-24 10:57 105 1 gusting 2 22.2
2020-Sep-24 10:52 22.2
2020-Sep-24 10:47 100 0 gusting 2 22.8
2020-Sep-24 10:42 075 1 gusting 2 22.8
2020-Sep-24 10:37 065 1 gusting 3 22.8
2020-Sep-24 10:32 066 1 gusting 3 22.8
2020-Sep-24 10:27 078 1 gusting 3 22.8
2020-Sep-24 10:22 081 1 gusting 2 22.8
2020-Sep-24 10:17 077 2 gusting 3 22.8
2020-Sep-24 10:12 083 1 gusting 3 22.8
2020-Sep-24 10:07 033 0 gusting 2 22.8
2020-Sep-24 10:02 055 1 gusting 2 22.8
2020-Sep-24 09:57 22.8
2020-Sep-24 09:52 069 0 gusting 3 22.8
2020-Sep-24 09:47 087 0 gusting 2 22.8
2020-Sep-24 09:42 080 0 gusting 3 22.8
2020-Sep-24 09:37 073 1 gusting 3 22.8
2020-Sep-24 09:32 083 1 gusting 2 22.8
2020-Sep-24 09:27 064 1 gusting 3 22.8
2020-Sep-24 09:22 062 1 gusting 4 22.8
2020-Sep-24 09:17 068 0 gusting 2 22.8
2020-Sep-24 09:12 057 0 gusting 2 22.8
2020-Sep-24 09:07 073 1 gusting 2 23.3
2020-Sep-24 09:02 078 1 gusting 2 23.3
2020-Sep-24 08:57 064 0 gusting 1 23.3
2020-Sep-24 08:52 084 1 gusting 3 23.3
2020-Sep-24 08:47 063 1 gusting 3 23.3
2020-Sep-24 08:42 064 1 gusting 3 23.3
2020-Sep-24 08:37 088 2 gusting 3 23.3
2020-Sep-24 08:32 100 1 gusting 3 23.3
2020-Sep-24 08:27 092 1 gusting 2 23.3
2020-Sep-24 08:22 104 2 gusting 3 23.3
2020-Sep-24 08:17 097 2 gusting 4 23.3
2020-Sep-24 08:12 082 2 gusting 4 23.3
2020-Sep-24 08:07 096 2 gusting 4 23.3
2020-Sep-24 08:02 101 2 gusting 4 23.3
2020-Sep-24 07:57 092 3 gusting 6 23.3
2020-Sep-24 07:52 086 2 gusting 4 23.3
2020-Sep-24 07:47 068 1 gusting 3 23.3
2020-Sep-24 07:43 23.3
2020-Sep-24 07:36 106 3 gusting 5 23.3
2020-Sep-24 07:31 109 4 gusting 5 23.3
2020-Sep-24 07:26 090 3 gusting 6 23.3
2020-Sep-24 07:21 101 4 gusting 6 23.3
2020-Sep-24 07:16 105 3 gusting 6 23.3
2020-Sep-24 07:11 101 2 gusting 4 23.3
2020-Sep-24 07:06 105 4 gusting 6 23.3
2020-Sep-24 07:01 103 2 gusting 5 23.3
2020-Sep-24 06:56 103 4 gusting 7 23.3
2020-Sep-24 06:51 101 4 gusting 6 23.3
2020-Sep-24 06:46 097 4 gusting 6 23.3
2020-Sep-24 06:41 087 1 gusting 3 23.3
2020-Sep-24 06:36 113 1 gusting 3 23.3
2020-Sep-24 06:31 119 3 gusting 6 23.3
2020-Sep-24 06:26 119 3 gusting 6 23.9
2020-Sep-24 06:21 104 4 gusting 6 23.9
2020-Sep-24 06:16 098 1 gusting 3 23.9
2020-Sep-24 06:11 096 1 gusting 4 23.9
2020-Sep-24 06:06 094 4 gusting 5 23.9
2020-Sep-24 06:01 107 4 gusting 6 23.9